createdAt,value
2022-11-12T00:00:14.073Z,6.29
2022-11-12T00:03:21.532Z,6.09
2022-11-12T00:06:28.887Z,5.81
2022-11-12T00:09:35.568Z,5.68
2022-11-12T00:12:43.931Z,5.65
2022-11-12T00:15:50.282Z,5.55
2022-11-12T00:18:57.125Z,5.42
2022-11-12T00:22:03.942Z,5.35
2022-11-12T00:25:11.412Z,5.27
2022-11-12T00:28:19.521Z,5.31
2022-11-12T00:31:27.270Z,5.32
2022-11-12T00:34:34.011Z,5.73
2022-11-12T00:37:40.920Z,5.97
2022-11-12T00:40:47.771Z,6.15
2022-11-12T00:43:55.739Z,5.62
2022-11-12T00:47:02.261Z,5.34
2022-11-12T00:50:10.257Z,5.06
2022-11-12T00:53:18.090Z,5.00
2022-11-12T00:56:24.682Z,5.22
2022-11-12T00:59:32.868Z,5.51
2022-11-12T01:02:44.176Z,5.85
2022-11-12T01:05:52.529Z,5.93
2022-11-12T01:08:59.196Z,6.04
2022-11-12T01:12:06.133Z,5.81
2022-11-12T01:15:14.261Z,6.11
2022-11-12T01:18:20.763Z,6.36
2022-11-12T01:21:32.768Z,6.32
2022-11-12T01:24:39.193Z,6.30
2022-11-12T01:27:46.314Z,6.50
2022-11-12T01:30:55.330Z,6.44
2022-11-12T01:34:04.383Z,6.45
2022-11-12T01:37:10.742Z,6.45
2022-11-12T01:40:17.704Z,6.59
2022-11-12T01:43:24.142Z,6.70
2022-11-12T01:46:32.360Z,6.64
2022-11-12T01:49:51.880Z,6.67
2022-11-12T01:53:04.307Z,6.69
2022-11-12T01:56:11.118Z,6.66
2022-11-12T01:59:22.872Z,6.61
2022-11-12T02:02:31.611Z,6.67
2022-11-12T02:05:40.004Z,6.52
2022-11-12T02:08:47.425Z,6.55
2022-11-12T02:11:54.162Z,6.62
2022-11-12T02:14:59.874Z,6.64
2022-11-12T02:18:08.799Z,6.69
2022-11-12T02:21:15.969Z,6.51
2022-11-12T02:24:37.029Z,6.60
2022-11-12T02:27:44.447Z,6.59
2022-11-12T02:30:51.240Z,6.62
2022-11-12T02:33:58.103Z,6.64
2022-11-12T02:37:04.491Z,6.63
2022-11-12T02:40:12.760Z,6.63
2022-11-12T02:43:19.193Z,6.67
2022-11-12T02:46:25.940Z,6.54
2022-11-12T02:49:32.551Z,6.61
2022-11-12T02:52:40.037Z,6.54
2022-11-12T02:55:47.760Z,6.56
2022-11-12T02:58:54.171Z,6.48
2022-11-12T03:02:00.675Z,6.34
2022-11-12T03:05:07.801Z,6.45
2022-11-12T03:08:14.248Z,6.31
2022-11-12T03:11:22.543Z,6.25
2022-11-12T03:14:29.261Z,6.47
2022-11-12T03:17:36.381Z,6.54
2022-11-12T03:20:42.981Z,6.53
2022-11-12T03:23:49.721Z,6.44
2022-11-12T03:26:57.761Z,6.44
2022-11-12T03:30:04.076Z,6.52
2022-11-12T03:33:12.251Z,6.31
2022-11-12T03:36:19.091Z,6.27
2022-11-12T03:39:25.789Z,6.27
2022-11-12T03:42:34.208Z,6.13
2022-11-12T03:45:40.613Z,6.25
2022-11-12T03:48:47.448Z,6.19
2022-11-12T03:51:54.277Z,6.12
2022-11-12T03:55:01.358Z,6.13
2022-11-12T03:58:09.452Z,6.17
2022-11-12T04:01:16.158Z,6.17
2022-11-12T04:04:23.002Z,6.14
2022-11-12T04:07:47.181Z,5.90
2022-11-12T04:10:54.126Z,5.99
2022-11-12T04:14:02.334Z,6.10
2022-11-12T04:17:26.849Z,6.22
2022-11-12T04:21:02.532Z,6.14
2022-11-12T04:24:09.001Z,6.19
2022-11-12T04:27:15.931Z,5.98
2022-11-12T04:30:24.132Z,5.94
2022-11-12T04:33:31.125Z,6.01
2022-11-12T04:36:37.852Z,6.07
2022-11-12T04:39:44.879Z,5.84
2022-11-12T04:43:09.282Z,5.49
2022-11-12T04:46:17.627Z,4.86
2022-11-12T04:49:24.113Z,5.27
2022-11-12T04:52:31.935Z,5.51
2022-11-12T04:55:38.238Z,5.72
2022-11-12T04:58:44.891Z,5.82
2022-11-12T05:01:53.409Z,5.91
2022-11-12T05:04:59.929Z,5.98
2022-11-12T05:08:06.633Z,6.01
2022-11-12T05:11:13.154Z,6.02
2022-11-12T05:14:19.741Z,6.00
2022-11-12T05:17:27.792Z,5.86
2022-11-12T05:20:34.347Z,5.92
2022-11-12T05:23:41.090Z,5.99
2022-11-12T05:26:48.188Z,6.00
2022-11-12T05:29:55.741Z,6.00
2022-11-12T05:33:05.365Z,5.92
2022-11-12T05:36:11.771Z,5.90
2022-11-12T05:39:18.394Z,5.90
2022-11-12T05:42:24.628Z,5.94
2022-11-12T05:45:31.376Z,5.99
2022-11-12T05:48:39.668Z,5.93
2022-11-12T05:51:46.681Z,5.85
2022-11-12T05:54:53.107Z,5.89
2022-11-12T05:57:59.902Z,5.95
2022-11-12T06:01:07.065Z,5.84
2022-11-12T06:04:16.801Z,5.78
2022-11-12T06:07:23.652Z,5.81
2022-11-12T06:10:30.424Z,5.76
2022-11-12T06:13:37.228Z,5.70
2022-11-12T06:16:44.185Z,5.75
2022-11-12T06:19:52.663Z,5.61
2022-11-12T06:22:59.197Z,5.58
2022-11-12T06:26:06.494Z,5.62
2022-11-12T06:29:13.719Z,5.61
2022-11-12T06:32:20.481Z,5.53
2022-11-12T06:35:28.241Z,5.79
2022-11-12T06:38:36.451Z,6.05
2022-11-12T06:41:43.189Z,6.22
2022-11-12T06:44:49.721Z,6.20
2022-11-12T06:47:59.231Z,6.18
2022-11-12T06:51:12.836Z,6.17
2022-11-12T06:54:19.165Z,6.15
2022-11-12T06:57:25.971Z,6.11
2022-11-12T07:00:32.694Z,6.36
2022-11-12T07:03:40.003Z,6.44
2022-11-12T07:06:48.063Z,6.39
2022-11-12T07:09:54.367Z,6.29
2022-11-12T07:13:01.290Z,6.30
2022-11-12T07:16:09.500Z,6.18
2022-11-12T07:19:16.042Z,6.30
2022-11-12T07:22:24.530Z,6.25
2022-11-12T07:25:31.073Z,6.25
2022-11-12T07:28:37.749Z,6.25
2022-11-12T07:31:44.369Z,6.22
2022-11-12T07:34:51.516Z,6.26
2022-11-12T07:37:59.746Z,6.20
2022-11-12T07:41:08.681Z,6.20
2022-11-12T07:44:15.390Z,6.28
2022-11-12T07:47:22.312Z,6.24
2022-11-12T07:50:29.020Z,6.29
2022-11-12T07:53:37.058Z,6.30
2022-11-12T07:56:43.775Z,6.48
2022-11-12T07:59:50.312Z,6.59
2022-11-12T08:03:00.446Z,6.53
2022-11-12T08:06:07.228Z,6.63
2022-11-12T08:09:15.516Z,6.70
2022-11-12T08:12:22.049Z,6.75
2022-11-12T08:15:28.831Z,6.84
2022-11-12T08:18:35.604Z,6.73
2022-11-12T08:21:42.643Z,6.91
2022-11-12T08:24:50.879Z,6.99
2022-11-12T08:27:59.281Z,6.86
2022-11-12T08:31:07.050Z,7.02
2022-11-12T08:34:16.222Z,7.12
2022-11-12T08:37:26.296Z,7.32
2022-11-12T08:40:34.883Z,7.64
2022-11-12T08:43:43.199Z,7.89
2022-11-12T08:46:49.611Z,8.10
2022-11-12T08:49:56.324Z,8.12
2022-11-12T08:53:03.902Z,8.19
2022-11-12T08:56:11.932Z,8.28
2022-11-12T08:59:18.462Z,8.04
2022-11-12T09:02:25.111Z,7.99
2022-11-12T09:05:31.812Z,7.85
2022-11-12T09:08:40.049Z,7.69
2022-11-12T09:11:48.064Z,7.72
2022-11-12T09:14:59.562Z,7.61
2022-11-12T09:18:19.226Z,7.58
2022-11-12T09:21:25.891Z,7.82
2022-11-12T09:24:32.493Z,7.97
2022-11-12T09:27:44.362Z,7.99
2022-11-12T09:30:55.679Z,7.87
2022-11-12T09:34:02.082Z,8.08
2022-11-12T09:37:08.963Z,8.00
2022-11-12T09:40:19.561Z,8.05
2022-11-12T09:43:31.082Z,8.14
2022-11-12T09:46:44.723Z,7.99
2022-11-12T09:49:58.362Z,8.24
2022-11-12T09:53:12.673Z,8.41
2022-11-12T09:56:21.960Z,8.50
2022-11-12T09:59:33.180Z,8.76
2022-11-12T10:02:48.228Z,8.91
2022-11-12T10:06:00.162Z,8.90
2022-11-12T10:09:12.535Z,9.03
2022-11-12T10:12:35.239Z,9.18
2022-11-12T10:16:16.870Z,9.20
2022-11-12T10:19:34.100Z,9.01
2022-11-12T10:22:59.012Z,9.11
2022-11-12T10:26:13.850Z,9.01
2022-11-12T10:29:28.467Z,9.04
2022-11-12T10:32:38.494Z,9.07
2022-11-12T10:35:45.213Z,9.07
2022-11-12T10:38:55.259Z,9.10
2022-11-12T10:42:05.664Z,9.24
2022-11-12T10:45:22.252Z,9.27
2022-11-12T10:48:34.231Z,9.33
2022-11-12T10:51:41.796Z,9.43
2022-11-12T10:54:54.864Z,9.58
2022-11-12T10:58:16.700Z,9.55
2022-11-12T11:01:23.431Z,9.65
2022-11-12T11:04:35.089Z,9.90
2022-11-12T11:07:51.282Z,9.75
2022-11-12T11:11:16.641Z,9.81
2022-11-12T11:14:33.095Z,9.94
2022-11-12T11:17:39.869Z,10.13
2022-11-12T11:20:55.423Z,10.08
2022-11-12T11:24:11.723Z,10.34
2022-11-12T11:27:30.729Z,10.51
2022-11-12T11:30:40.389Z,10.54
2022-11-12T11:33:55.572Z,10.71
2022-11-12T11:37:15.413Z,10.89
2022-11-12T11:40:28.391Z,10.84
2022-11-12T11:43:48.692Z,10.97
2022-11-12T11:47:07.043Z,11.12
2022-11-12T11:50:27.315Z,11.10
2022-11-12T11:53:47.641Z,11.21
2022-11-12T11:56:59.794Z,11.29
2022-11-12T12:00:16.855Z,11.41
2022-11-12T12:03:32.825Z,11.41
2022-11-12T12:06:49.957Z,11.49
2022-11-12T12:10:09.339Z,11.56
2022-11-12T12:13:25.930Z,11.57
2022-11-12T12:16:52.058Z,11.66
2022-11-12T12:20:06.709Z,11.81
2022-11-12T12:23:22.006Z,11.93
2022-11-12T12:26:37.281Z,11.90
2022-11-12T12:29:50.117Z,11.89
2022-11-12T12:33:02.717Z,11.87
2022-11-12T12:36:12.771Z,11.85
2022-11-12T12:39:21.759Z,11.74
2022-11-12T12:42:34.262Z,11.90
2022-11-12T12:45:44.162Z,12.06
2022-11-12T12:48:54.320Z,12.09
2022-11-12T12:52:01.393Z,12.05
2022-11-12T12:55:28.462Z,12.05
2022-11-12T12:58:45.219Z,11.99
2022-11-12T13:01:58.531Z,12.03
2022-11-12T13:05:06.106Z,11.82
2022-11-12T13:08:15.410Z,11.85
2022-11-12T13:12:06.807Z,11.82
2022-11-12T13:15:17.788Z,11.74
2022-11-12T13:19:00.922Z,11.89
2022-11-12T13:22:35.248Z,12.14
2022-11-12T13:25:42.072Z,12.03
2022-11-12T13:29:21.593Z,12.19
2022-11-12T13:32:42.471Z,11.99
2022-11-12T13:35:49.464Z,11.90
2022-11-12T13:39:12.321Z,11.94
2022-11-12T13:42:37.470Z,11.88
2022-11-12T13:45:49.238Z,11.88
2022-11-12T13:49:01.141Z,11.80
2022-11-12T13:52:08.222Z,11.99
2022-11-12T13:55:17.034Z,11.72
2022-11-12T13:58:32.199Z,11.74
2022-11-12T14:01:38.940Z,11.64
2022-11-12T14:04:47.433Z,11.70
2022-11-12T14:08:27.144Z,11.91
2022-11-12T14:11:47.591Z,11.82
2022-11-12T14:15:11.982Z,11.95
2022-11-12T14:18:26.725Z,11.74
2022-11-12T14:21:35.173Z,11.75
2022-11-12T14:24:42.259Z,11.36
2022-11-12T14:27:50.191Z,11.66
2022-11-12T14:30:57.356Z,11.67
2022-11-12T14:34:23.676Z,11.50
2022-11-12T14:37:43.070Z,11.35
2022-11-12T14:40:53.743Z,11.17
2022-11-12T14:44:12.563Z,10.98
2022-11-12T14:47:19.860Z,10.88
2022-11-12T14:50:31.716Z,10.83
2022-11-12T14:53:46.239Z,10.91
2022-11-12T14:56:53.398Z,10.87
2022-11-12T15:00:00.151Z,10.78
2022-11-12T15:03:07.428Z,10.76
2022-11-12T15:06:14.154Z,10.75
2022-11-12T15:09:34.212Z,10.78
2022-11-12T15:12:41.092Z,10.65
2022-11-12T15:15:53.668Z,10.50
2022-11-12T15:19:19.979Z,10.36
2022-11-12T15:22:26.517Z,10.31
2022-11-12T15:25:34.551Z,10.20
2022-11-12T15:28:41.347Z,10.20
2022-11-12T15:31:50.612Z,10.09
2022-11-12T15:34:57.201Z,10.00
2022-11-12T15:38:08.180Z,9.90
2022-11-12T15:41:27.166Z,9.70
2022-11-12T15:44:35.910Z,9.64
2022-11-12T15:47:42.948Z,9.66
2022-11-12T15:50:50.661Z,9.49
2022-11-12T15:53:57.354Z,9.34
2022-11-12T15:57:05.660Z,9.24
2022-11-12T16:00:17.701Z,9.15
2022-11-12T16:03:24.566Z,9.04
2022-11-12T16:06:31.511Z,8.94
2022-11-12T16:09:39.159Z,8.81
2022-11-12T16:12:48.733Z,8.75
2022-11-12T16:15:57.754Z,8.55
2022-11-12T16:19:04.117Z,8.34
2022-11-12T16:22:13.725Z,8.31
2022-11-12T16:25:21.323Z,8.17
2022-11-12T16:28:29.407Z,8.01
2022-11-12T16:31:36.033Z,7.90
2022-11-12T16:34:43.807Z,7.84
2022-11-12T16:37:51.571Z,7.64
2022-11-12T16:40:58.025Z,7.72
2022-11-12T16:44:06.569Z,7.75
2022-11-12T16:47:13.519Z,7.67
2022-11-12T16:50:22.332Z,7.53
2022-11-12T16:53:29.322Z,7.43
2022-11-12T16:56:36.508Z,7.32
2022-11-12T16:59:45.146Z,7.12
2022-11-12T17:02:53.696Z,6.97
2022-11-12T17:06:00.255Z,6.91
2022-11-12T17:09:08.687Z,6.89
2022-11-12T17:12:15.292Z,6.81
2022-11-12T17:15:23.318Z,6.75
2022-11-12T17:18:29.965Z,6.82
2022-11-12T17:21:36.633Z,6.77
2022-11-12T17:24:43.174Z,6.59
2022-11-12T17:27:49.895Z,6.47
2022-11-12T17:31:06.282Z,6.36
2022-11-12T17:34:13.000Z,6.29
2022-11-12T17:37:19.950Z,6.40
2022-11-12T17:40:26.632Z,6.49
2022-11-12T17:43:33.622Z,6.20
2022-11-12T17:46:41.667Z,6.12
2022-11-12T17:49:48.866Z,6.15
2022-11-12T17:52:55.992Z,6.01
2022-11-12T17:56:02.993Z,5.93
2022-11-12T17:59:09.635Z,5.93
2022-11-12T18:02:17.641Z,5.96
2022-11-12T18:05:24.523Z,5.98
2022-11-12T18:08:31.368Z,5.95
2022-11-12T18:11:44.207Z,5.86
2022-11-12T18:14:50.853Z,5.67
2022-11-12T18:17:59.085Z,5.77
2022-11-12T18:21:06.373Z,5.71
2022-11-12T18:24:16.324Z,5.58
2022-11-12T18:27:27.377Z,5.46
2022-11-12T18:30:34.521Z,5.43
2022-11-12T18:33:42.964Z,5.52
2022-11-12T18:36:49.328Z,5.44
2022-11-12T18:39:56.048Z,5.46
2022-11-12T18:43:02.703Z,5.40
2022-11-12T18:46:11.387Z,5.22
2022-11-12T18:49:19.316Z,5.54
2022-11-12T18:52:26.149Z,5.31
2022-11-12T18:55:32.973Z,5.26
2022-11-12T18:58:39.759Z,5.33
2022-11-12T19:01:46.296Z,5.25
2022-11-12T19:04:55.522Z,5.20
2022-11-12T19:08:02.249Z,5.13
2022-11-12T19:11:11.480Z,5.12
2022-11-12T19:14:18.002Z,5.10
2022-11-12T19:17:28.302Z,5.15
2022-11-12T19:20:38.653Z,5.24
2022-11-12T19:23:47.840Z,5.37
2022-11-12T19:26:56.937Z,5.35
2022-11-12T19:30:05.916Z,5.30
2022-11-12T19:33:13.051Z,5.23
2022-11-12T19:36:23.225Z,5.15
2022-11-12T19:39:29.827Z,5.12
2022-11-12T19:42:36.581Z,5.23
2022-11-12T19:45:43.086Z,5.18
2022-11-12T19:48:51.301Z,5.24
2022-11-12T19:51:59.364Z,5.16
2022-11-12T19:55:06.920Z,5.12
2022-11-12T19:58:13.703Z,5.07
2022-11-12T20:01:21.362Z,5.06
2022-11-12T20:04:28.187Z,5.07
2022-11-12T20:07:36.402Z,5.04
2022-11-12T20:10:43.285Z,4.98
2022-11-12T20:13:53.318Z,5.04
2022-11-12T20:16:59.792Z,5.00
2022-11-12T20:20:09.537Z,4.96
2022-11-12T20:23:17.904Z,4.99
2022-11-12T20:26:26.908Z,5.00
2022-11-12T20:29:33.714Z,5.00
2022-11-12T20:32:40.243Z,4.80
2022-11-12T20:35:50.816Z,4.97
2022-11-12T20:38:58.575Z,4.96
2022-11-12T20:42:05.344Z,5.14
2022-11-12T20:45:12.272Z,5.15
2022-11-12T20:48:20.263Z,4.91
2022-11-12T20:51:29.768Z,4.80
2022-11-12T20:54:37.681Z,4.73
2022-11-12T20:57:44.314Z,4.70
2022-11-12T21:00:51.863Z,4.65
2022-11-12T21:03:59.392Z,4.66
2022-11-12T21:07:06.382Z,4.78
2022-11-12T21:10:14.972Z,4.76
2022-11-12T21:13:22.004Z,4.65
2022-11-12T21:16:28.669Z,4.58
2022-11-12T21:19:35.378Z,4.47
2022-11-12T21:22:41.993Z,4.27
2022-11-12T21:25:50.142Z,4.34
2022-11-12T21:28:57.342Z,4.29
2022-11-12T21:32:03.641Z,4.59
2022-11-12T21:35:10.982Z,4.36
2022-11-12T21:38:17.420Z,4.34
2022-11-12T21:41:27.352Z,4.19
2022-11-12T21:44:34.054Z,4.13
2022-11-12T21:47:40.845Z,4.00
2022-11-12T21:50:47.626Z,4.03
2022-11-12T21:53:55.454Z,4.24
2022-11-12T21:57:03.092Z,4.14
2022-11-12T22:00:39.732Z,4.31
2022-11-12T22:03:38.126Z,4.31
2022-11-12T22:06:44.283Z,4.20
2022-11-12T22:09:56.381Z,4.06
2022-11-12T22:13:25.851Z,4.14
2022-11-12T22:16:31.613Z,4.12
2022-11-12T22:19:39.160Z,4.12
2022-11-12T22:22:45.772Z,4.25
2022-11-12T22:25:53.216Z,4.19
2022-11-12T22:29:01.457Z,4.38
2022-11-12T22:32:07.996Z,4.27
2022-11-12T22:35:14.682Z,4.10
2022-11-12T22:38:21.455Z,4.18
2022-11-12T22:41:29.749Z,4.13
2022-11-12T22:44:37.885Z,4.15
2022-11-12T22:47:44.362Z,4.16
2022-11-12T22:50:51.115Z,4.05
2022-11-12T22:53:59.215Z,4.14
2022-11-12T22:57:05.878Z,4.22
2022-11-12T23:00:17.424Z,4.06
2022-11-12T23:03:23.836Z,4.32
2022-11-12T23:06:31.872Z,4.35
2022-11-12T23:09:38.971Z,4.04
2022-11-12T23:12:45.826Z,3.96
2022-11-12T23:15:53.832Z,3.90
2022-11-12T23:19:01.257Z,3.83
2022-11-12T23:22:08.511Z,3.92
2022-11-12T23:25:15.301Z,3.91
2022-11-12T23:28:22.060Z,3.83
2022-11-12T23:31:32.354Z,3.76
2022-11-12T23:34:39.165Z,3.72
2022-11-12T23:37:46.073Z,3.67
2022-11-12T23:40:57.195Z,3.67
2022-11-12T23:44:03.946Z,3.63
2022-11-12T23:47:12.193Z,3.60
2022-11-12T23:50:19.136Z,3.78
2022-11-12T23:53:25.454Z,3.84
2022-11-12T23:56:32.392Z,3.66
2022-11-12T23:59:39.318Z,3.59
